Rankings de siempre
Mejores tiempos personales válidos de atleta a través de todos los eventos y temporadas. Cada atleta aparece una vez por división.
Busca por nombre y abre la página donde está clasificado este récord de división.
179,683 atletas clasificados
| Pos. | Pos. AG | Atleta | Nacionalidad | Categoría de edad | TiempoMejor tiempo | Diferencia |
|---|---|---|---|---|---|---|
| 179501 | #37448 | Kwun Fai HoHKG · M 25-29 · AG #37448 | HKG | M 25-29 | 3:18:34 | +147:56 |
| 179502 | #8041 | Erick AlbarracinUSA · M 50-54 · AG #8041 | USA | M 50-54 | 3:18:41 | +148:03 |
| 179503 | #26234 | Nur Hidayat Bin SamatSIN · M 40-44 · AG #26234 | SIN | M 40-44 | 3:18:45 | +148:07 |
| 179504 | #18283 | Chris JestinIND · M 16-24 · AG #18283 | IND | M 16-24 | 3:18:48 | +148:10 |
| 179505 | #408 | Patrick LaffertyUSA · M 65-69 · AG #408 | USA | M 65-69 | 3:18:56 | +148:18 |
| 179506 | #26235 | Shaun OconnorGBR · M 40-44 · AG #26235 | GBR | M 40-44 | 3:19:05 | +148:27 |
| 179507 | #39126 | Arturo Ramon Garza TorresMEX · M 35-39 · AG #39126 | MEX | M 35-39 | 3:19:14 | +148:36 |
| 179508 | #3747 | See TiangUSA · M 55-59 · AG #3747 | USA | M 55-59 | 3:19:20 | +148:42 |
| 179509 | #14920 | 海笑 刘CHN · M 45-49 · AG #14920 | CHN | M 45-49 | 3:19:33 | +148:55 |
| 179510 | #37449 | Elson ChewSIN · M 25-29 · AG #37449 | SIN | M 25-29 | 3:19:35 | +148:57 |
| 179511 | #37450 | CHIN YI CHUANMAS · M 25-29 · AG #37450 | MAS | M 25-29 | 3:19:35 | +148:57 |
| 179512 | #46833 | Emmanuel SalinasMEX · M 30-34 · AG #46833 | MEX | M 30-34 | 3:19:49 | +149:11 |
| 179513 | #37451 | Dev ShahIND · M 25-29 · AG #37451 | IND | M 25-29 | 3:19:51 | +149:13 |
| 179514 | #37452 | Andy TranUSA · M 25-29 · AG #37452 | USA | M 25-29 | 3:19:52 | +149:14 |
| 179515 | #18284 | Bilal ZahidGBR · M 16-24 · AG #18284 | GBR | M 16-24 | 3:19:54 | +149:16 |
| 179516 | #1568 | Jim OttoUSA · M 60-64 · AG #1568 | USA | M 60-64 | 3:20:09 | +149:31 |
| 179517 | #26236 | George PerkinsGBR · M 40-44 · AG #26236 | GBR | M 40-44 | 3:20:27 | +149:49 |
| 179518 | #18285 | Shrey GhelaniIND · M 16-24 · AG #18285 | IND | M 16-24 | 3:20:50 | +150:12 |
| 179519 | #37453 | Jesus Eduardo Ibañez HerreraMEX · M 25-29 · AG #37453 | MEX | M 25-29 | 3:20:58 | +150:20 |
| 179520 | #37454 | Dorian DiafFRA · M 25-29 · AG #37454 | FRA | M 25-29 | 3:21:05 | +150:27 |
| 179521 | #91 | Yow Kai KimMAS · M 70-74 · AG #91 | MAS | M 70-74 | 3:21:09 | +150:31 |
| 179522 | #39127 | Edgar Javier Flores SaucedoMEX · M 35-39 · AG #39127 | MEX | M 35-39 | 3:21:12 | +150:34 |
| 179523 | #26237 | Suresh Kumar ViswanathanSIN · M 40-44 · AG #26237 | SIN | M 40-44 | 3:21:24 | +150:46 |
| 179524 | #3748 | Christopher ColemanUSA · M 55-59 · AG #3748 | USA | M 55-59 | 3:21:41 | +151:03 |
| 179525 | #37455 | Mukund KaushalIND · M 25-29 · AG #37455 | IND | M 25-29 | 3:21:43 | +151:05 |
Página 7,181 de 7,188